首页
METAR-TAF:

METAR-TAF

机场 :

西沃萨古尔·拉姆古兰爵士国际机场

毛里求斯, 毛里求斯

纬度: 20-26S, 经度: 057-40E, 海拔: 55米

当前天气观测

该预报发布于1小时和6分钟前的00:00 UTC
风速2节,风向
温度 24°C
湿度 89%
气压 1015 hPa
能见度10公里或以上
散云层高于1500英尺

METAR: FIMP 130000Z 09002KT 9999 SCT015 24/22 Q1015

时间: 05:06 (01:06 UTC)

预报

该预报发布于2小时和6分钟前的23:00 UTC
预报有效从13日的 00点(UTC)到 14日的 06点(UTC)
风速10节,风向
能见度10公里或以上
散云层高于1600英尺
短暂存在
从 13日的 00点(UTC)到 13日的 03点(UTC)
能見度: 7000
少量云层高于1000英尺
多云层高于1500英尺
多云层高于5000英尺
小阵雨
几率 30% :
短暂存在
从 13日的 12点(UTC)到 14日的 00点(UTC)
能見度: 5000
少量云层高于700英尺
多云层高于1400英尺
阵雨

TAF: FIMP 122300Z 1300/1406 08010KT 9999 SCT016 TEMPO 1300/1303 7000 -SHRA FEW010 BKN015 BKN050 PROB30 TEMPO 1312/1400 5000 SHRA FEW007 BKN014

超过4000个机场的气象观测和天气预报(METAR&TAF报告)。

可查询的气象台以黄色和红色小点在地图上表示。

将鼠标移到小点上方,可查看气象台名称。

然后点击查看天气观测和预报。

如需切换地图:点击带黑十字的绿色按钮放大地图;点击带横线的绿色按钮缩小地图;或者点击绿色箭头查看邻近地区的地图。


METAR-TAF: